• Join FlightAware (Why Join?)
  • Login
  • US Flag 
05:45PM EDT


 

Airport Tracker/Info


-or-


 

Live Flight TrackerFlight Track Log ✈ CHQ6093 ✈ 29-Apr-2013 ✈ KJFK - KCHS

Flight Track Log - Related Links

Times and Time Zones

All times are in EDT time to prevent confusion due to time zone crossing. See the CHQ6093 flight status page for this flight to view local times or setup timezone preferences in your user account.

Time Position Orientation Groundspeed Altitude Reporting Facility
EDT Latitude Longitude Course Direction KTS MPH feet Rate Location/Type
08:30AM 40.5833 -73.7500 146° Southeast 194 223 3,300  Level New York TRACON
08:32AM 40.4057 -73.5557 143° Southeast  Level FlightAware Approximate
08:32AM 40.4931 -73.6583 142° Southeast 245 282 6,900  Level New York Center
08:33AM 40.3275 -73.4941 143° Southeast  Level FlightAware Approximate
08:33AM 40.4342 -73.5986 142° Southeast 253 291 9,600  Level New York Center
08:34AM 40.2605 -73.4211 123° Southeast  Level FlightAware Approximate
08:34AM 40.3731 -73.5389 143° Southeast 268 308 11,300  Level New York Center
08:35AM 40.1887 -73.3436 146° Southeast  Level FlightAware Approximate
08:35AM 40.2897 -73.5300 175° South 288 331 13,000  Level New York Center
08:36AM 40.1109 -73.2744 146° Southeast  Level FlightAware Approximate
08:36AM 40.2006 -73.5211 176° South 316 364 14,400  Level New York Center
08:37AM 40.1069 -73.5119 176° South 337 388 16,000 1,500 Climbing New York Center
08:38AM 40.0111 -73.5081 178° South 346 398 17,400 1,380 Climbing New York Center
08:40AM 39.8292 -73.6650 214° Southwest 341 392 20,500 1,380 Climbing Washington Center
08:41AM 39.7450 -73.7347 213° Southwest 359 413 22,000 1,440 Climbing Washington Center
08:42AM 39.6647 -73.8044 214° Southwest 364 419 23,500 1,440 Climbing Washington Center
08:43AM 39.5825 -73.8764 214° Southwest 364 419 25,000 1,320 Climbing Washington Center
08:44AM 39.5103 -73.9372 213° Southwest 364 419 26,200 1,320 Climbing Washington Center
08:45AM 39.4364 -74.0089 217° Southwest 354 407 27,700 1,500 Climbing Washington Center
08:46AM 39.3622 -74.0803 217° Southwest 344 396 29,200 1,440 Climbing Washington Center
08:47AM 39.2881 -74.1489 216° Southwest 338 389 30,600 1,320 Climbing Washington Center
08:48AM 39.2181 -74.2172 217° Southwest 333 383 31,900 1,140 Climbing Washington Center
08:49AM 39.1417 -74.2883 216° Southwest 339 390 32,900 960 Climbing Washington Center
08:50AM 39.0653 -74.3592 216° Southwest 339 390 33,900 540 Climbing Washington Center
08:51AM 38.9847 -74.4300 214° Southwest 339 390 34,000  Climbing Washington Center
08:52AM 38.9103 -74.5006 216° Southwest 339 390 34,000  Level Washington Center
08:53AM 38.8358 -74.5683 215° Southwest 339 390 34,000  Level Washington Center
08:54AM 38.7614 -74.6386 216° Southwest 339 390 34,000  Level Washington Center
08:55AM 38.6806 -74.7114 215° Southwest 339 390 34,000  Level Washington Center
08:56AM 38.5978 -74.7842 215° Southwest 353 406 34,000  Level Washington Center
08:57AM 38.5150 -74.8619 216° Southwest 365 420 34,000  Level Washington Center
08:58AM 38.4297 -74.9369 215° Southwest 370 426 34,000  Level Washington Center
08:59AM 38.3428 -75.0147 215° Southwest 377 434 34,000  Level Washington Center
09:00AM 38.2597 -75.0972 218° Southwest 377 434 34,000  Level Washington Center
09:01AM 38.1744 -75.1692 214° Southwest 377 434 34,000  Level Washington Center
09:02AM 38.0892 -75.2436 214° Southwest 377 434 34,000  Level Washington Center
09:03AM 38.0081 -75.3178 216° Southwest 377 434 34,000  Level Washington Center
09:04AM 37.9247 -75.3917 215° Southwest 377 434 34,000  Level Washington Center
09:05AM 37.8394 -75.4631 213° Southwest 377 434 34,000  Level Washington Center
09:06AM 37.7561 -75.5392 216° Southwest 377 434 34,000  Level Washington Center
09:07AM 37.6725 -75.6128 215° Southwest 377 434 34,000  Level Washington Center
09:08AM 37.5892 -75.6861 215° Southwest 377 434 34,000  Level Washington Center
09:09AM 37.5014 -75.7594 214° Southwest 377 434 34,000  Level Washington Center
09:10AM 37.4178 -75.8350 216° Southwest 377 434 34,000  Level Washington Center
09:11AM 37.3342 -75.9106 216° Southwest 377 434 34,000  Level Washington Center
09:12AM 37.2486 -75.9858 215° Southwest 377 434 34,000  Level Washington Center
09:13AM 37.1628 -76.0583 214° Southwest 377 434 34,000 -60 Level Washington Center
09:14AM 37.0792 -76.1308 215° Southwest 377 434 33,900 -300 Descending Washington Center
09:15AM 36.9786 -76.2081 212° Southwest 382 440 33,500 -540 Descending Washington Center
09:16AM 36.8947 -76.2828 215° Southwest 382 440 32,900 -600 Descending Washington Center
09:17AM 36.8108 -76.3547 214° Southwest 382 440 32,400 -480 Descending Washington Center
09:18AM 36.7269 -76.4264 214° Southwest 377 434 32,000 -240 Descending Washington Center
09:19AM 36.6533 -76.4928 216° Southwest 377 434 32,000  Level Washington Center
09:20AM 36.5736 -76.5592 214° Southwest 372 428 32,000  Level Washington Center
09:21AM 36.4894 -76.6306 214° Southwest 367 422 32,000  Level Washington Center
09:22AM 36.4075 -76.6992 214° Southwest 367 422 32,000  Level Washington Center
09:23AM 36.3214 -76.7728 215° Southwest 367 422 32,000  Level Washington Center
09:24AM 36.2372 -76.8436 214° Southwest 377 434 32,000  Level Washington Center
09:25AM 36.1489 -76.9142 213° Southwest 377 434 32,000  Level Washington Center
09:26AM 36.0644 -76.9847 214° Southwest 377 434 32,000  Level Washington Center
09:27AM 35.9781 -77.0575 214° Southwest 382 440 32,000  Level Washington Center
09:28AM 35.8833 -77.1353 214° Southwest 376 433 32,000  Level Washington Center
09:29AM 35.8008 -77.2106 217° Southwest 376 433 32,000  Level Washington Center
09:30AM 35.7183 -77.2908 218° Southwest 376 433 32,000  Level Washington Center
09:31AM 35.6339 -77.3708 218° Southwest 382 440 32,000  Level Washington Center
09:32AM 35.5533 -77.4533 220° Southwest 382 440 32,000  Level Washington Center
09:33AM 35.4664 -77.5328 217° Southwest 382 440 32,000  Level Washington Center
09:34AM 35.3836 -77.6147 219° Southwest 382 440 32,000  Level Washington Center
09:35AM 35.3117 -77.6842 218° Southwest 382 440 32,000  Level Washington Center
09:36AM 35.2308 -77.7611 218° Southwest 376 433 32,000 -240 Level Washington Center
09:37AM 35.1503 -77.8375 218° Southwest 376 433 31,600 -720 Descending Washington Center
09:38AM 35.0717 -77.9117 218° Southwest 376 433 30,600 -1,080 Descending Washington Center
09:39AM 34.9886 -77.9903 218° Southwest 376 433 29,500 -1,080 Descending Washington Center
09:40AM 34.9056 -78.0714 219° Southwest 376 433 28,500 -540 Descending Washington Center
09:42AM 34.7311 -78.2394 218° Southwest 377 434 28,000 -180 Descending Jacksonville Center
09:43AM 34.6483 -78.3197 219° Southwest 382 440 28,000  Level Jacksonville Center
09:44AM 34.5678 -78.3972 218° Southwest 382 440 28,000  Level Jacksonville Center
09:45AM 34.4831 -78.4744 217° Southwest 382 440 28,000  Level Jacksonville Center
09:46AM 34.4003 -78.5542 218° Southwest 382 440 28,000  Level Jacksonville Center
09:47AM 34.3197 -78.6389 221° Southwest 388 447 28,000 -120 Level Jacksonville Center
09:48AM 34.2392 -78.7281 222° Southwest 394 453 27,800 -600 Descending Jacksonville Center
09:49AM 34.1628 -78.8169 224° Southwest 394 453 26,900 -960 Descending Jacksonville Center
09:50AM 34.0783 -78.9114 223° Southwest 406 467 25,900 -960 Descending Jacksonville Center
09:51AM 33.9956 -79.0028 222° Southwest 406 467 25,000 -1,140 Descending Jacksonville Center
09:52AM 33.9128 -79.0989 224° Southwest 411 473 23,700 -1,440 Descending Jacksonville Center
09:53AM 33.8300 -79.1900 222° Southwest 411 473 22,200 -1,740 Descending Jacksonville Center
09:54AM 33.7447 -79.2711 218° Southwest 411 473 20,300 -2,040 Descending Jacksonville Center
09:55AM 33.6672 -79.3292 212° Southwest 381 438 18,200 -1,800 Descending Jacksonville Center
09:56AM 33.5997 -79.3792 212° Southwest 357 411 16,700 -1,800 Descending Jacksonville Center
09:57AM 33.5281 -79.4319 212° Southwest 326 375 14,700 -2,040 Descending Jacksonville Center
09:58AM 33.4567 -79.4869 213° Southwest 313 360 12,700 -1,740 Descending Jacksonville Center
09:59AM 33.3850 -79.5419 213° Southwest 313 360 11,300 -900 Descending Jacksonville Center
10:00AM 33.3133 -79.5944 211° Southwest 313 360 10,900 -600 Descending Jacksonville Center
10:01AM 33.2606 -79.6558 224° Southwest 296 341 10,200 -1,200 Descending Jacksonville Center
10:02AM 33.2183 -79.7194 232° Southwest 265 305 8,500 -1,800 Descending Jacksonville Center
10:03AM 33.1761 -79.7806 230° Southwest 248 285 6,700 -1,800 Descending Jacksonville Center
10:04AM 33.1381 -79.8439 234° Southwest 241 277 5,000 -1,620 Descending Jacksonville Center
10:05AM 33.1039 -79.8972 233° Southwest 229 264 3,500 -1,680 Descending Jacksonville Center
10:06AM 33.0717 -79.9553 236° Southwest 223 257 1,700 -1,200 Descending Jacksonville Center
10:07AM 33.0372 -79.9936 223° Southwest 201 231 1,200 -300 Descending Jacksonville Center
10:08AM 32.9997 -79.9972 185° South 150 173 1,200  Level Jacksonville Center